Time;durP1;ratioP1;P1;durP2;ratioP2;P2;SDS_P1;SDS_P2;PMS_P1;PMS_P2;Temp;Humidity;BMP_temperature;BMP_pressure;BME280_temperature;BME280_humidity;BME280_pressure;Samples;Min_cycle;Max_cycle;Signal;HPM_P1;HPM_P2
2022/03/22 00:01:10;;;;;;;25.38;11.70;;;;;;;-0.61;74.85;96824.81;5074474;28;20051;-74
2022/03/22 00:03:36;;;;;;;30.75;11.60;;;;;;;-0.56;74.85;96825.16;5104162;28;20043;-74
2022/03/22 00:06:03;;;;;;;27.02;12.23;;;;;;;-0.68;75.90;96821.28;5106076;28;20089;-74
2022/03/22 00:08:29;;;;;;;26.00;11.75;;;;;;;-0.69;76.19;96822.25;5087743;28;20043;-74
2022/03/22 00:10:55;;;;;;;27.10;11.82;;;;;;;-0.78;76.28;96815.50;5110846;28;20051;-73
2022/03/22 00:13:20;;;;;;;26.65;12.48;;;;;;;-0.84;76.89;96813.59;5095300;28;20063;-73
2022/03/22 00:15:46;;;;;;;26.45;11.32;;;;;;;-0.73;76.01;96821.00;5091645;28;21840;-74
2022/03/22 00:18:12;;;;;;;28.35;12.30;;;;;;;-0.80;76.30;96825.22;5092712;28;20036;-74
2022/03/22 00:20:38;;;;;;;25.73;12.50;;;;;;;-0.83;76.16;96817.75;5076865;28;20455;-73
2022/03/22 00:23:04;;;;;;;27.02;11.68;;;;;;;-0.82;77.41;96816.81;5102119;28;20044;-73
2022/03/22 00:25:29;;;;;;;29.48;13.00;;;;;;;-0.81;77.16;96808.88;5087875;28;20044;-76
2022/03/22 00:27:57;;;;;;;29.63;12.38;;;;;;;-0.78;76.51;96813.72;5080596;28;20040;-76
2022/03/22 00:30:31;;;;;;;35.83;12.73;;;;;;;-0.81;76.62;96815.84;5105920;28;20044;-76
2022/03/22 00:33:00;;;;;;;28.02;12.75;;;;;;;-0.78;76.94;96815.50;5073185;28;20497;-73
2022/03/22 00:35:28;;;;;;;29.70;12.05;;;;;;;-0.81;76.80;96821.00;5091462;28;20047;-74
2022/03/22 00:37:56;;;;;;;25.85;12.18;;;;;;;-0.93;77.75;96821.34;5111813;28;20040;-73
2022/03/22 00:40:22;;;;;;;30.38;12.45;;;;;;;-1.00;78.15;96815.22;5111101;28;20051;-73
2022/03/22 00:42:52;;;;;;;27.48;12.35;;;;;;;-0.96;77.85;96821.69;5090859;28;20555;-74
2022/03/22 00:45:19;;;;;;;26.00;12.32;;;;;;;-0.97;76.92;96834.78;5078500;28;20036;-74
2022/03/22 00:47:46;;;;;;;28.33;12.60;;;;;;;-1.00;77.39;96835.09;5107122;28;20493;-75
2022/03/22 00:50:13;;;;;;;28.98;13.27;;;;;;;-1.05;78.13;96827.81;5104537;27;20462;-75
2022/03/22 00:52:40;;;;;;;26.67;12.25;;;;;;;-1.12;78.85;96826.84;5104052;28;20131;-75
2022/03/22 00:55:07;;;;;;;29.52;12.15;;;;;;;-1.10;78.22;96817.19;5090971;28;20036;-74
2022/03/22 00:57:33;;;;;;;31.58;11.93;;;;;;;-1.08;78.58;96813.47;5072863;28;20047;-74
2022/03/22 01:00:06;;;;;;;28.25;12.73;;;;;;;-1.15;78.43;96816.84;5091180;28;20055;-74
2022/03/22 01:02:39;;;;;;;25.65;11.60;;;;;;;-1.19;78.79;96820.72;5090878;28;20040;-74
2022/03/22 01:05:07;;;;;;;30.98;13.18;;;;;;;-1.18;78.04;96823.13;5097272;28;20043;-74
2022/03/22 01:07:34;;;;;;;29.90;12.88;;;;;;;-1.22;77.83;96825.25;5084063;28;20028;-74
2022/03/22 01:10:02;;;;;;;29.50;12.18;;;;;;;-1.22;78.71;96821.88;5107697;28;20126;-74
2022/03/22 01:12:30;;;;;;;30.85;12.73;;;;;;;-1.23;78.80;96818.47;5090539;28;20037;-74
2022/03/22 01:14:55;;;;;;;26.50;12.20;;;;;;;-1.26;79.20;96816.22;5090771;28;20185;-77
2022/03/22 01:17:21;;;;;;;28.58;12.10;;;;;;;-1.31;78.88;96823.63;5072389;28;20744;-77
2022/03/22 01:19:46;;;;;;;27.02;12.52;;;;;;;-1.28;78.63;96828.50;5073828;28;20048;-74
2022/03/22 01:22:12;;;;;;;27.65;11.95;;;;;;;-1.34;79.01;96812.84;5103814;28;20047;-74
2022/03/22 01:24:38;;;;;;;28.30;13.60;;;;;;;-1.34;79.56;96818.78;5111107;28;20032;-74
2022/03/22 01:27:04;;;;;;;27.83;12.77;;;;;;;-1.31;79.53;96808.13;5085100;28;20043;-74
2022/03/22 01:29:29;;;;;;;29.58;12.52;;;;;;;-1.37;79.81;96815.75;5104301;28;20565;-74
2022/03/22 01:31:55;;;;;;;30.05;11.63;;;;;;;-1.37;79.74;96813.16;5087046;28;20042;-74
2022/03/22 01:34:21;;;;;;;33.17;13.48;;;;;;;-1.38;79.23;96812.34;5104249;28;20044;-75
2022/03/22 01:36:46;;;;;;;37.60;13.48;;;;;;;-1.50;79.29;96808.47;5090341;28;20051;-75
2022/03/22 01:39:12;;;;;;;30.60;13.25;;;;;;;-1.49;79.84;96804.94;5107743;28;20177;-75
2022/03/22 01:41:37;;;;;;;29.83;12.85;;;;;;;-1.43;80.17;96804.28;5104136;28;20386;-74
2022/03/22 01:44:03;;;;;;;33.10;13.00;;;;;;;-1.51;79.66;96806.84;5090796;28;20039;-75
2022/03/22 01:46:29;;;;;;;28.13;12.93;;;;;;;-1.46;80.00;96804.59;5109216;28;20122;-75
2022/03/22 01:48:55;;;;;;;27.75;12.40;;;;;;;-1.45;80.41;96804.44;5096932;28;20054;-75
2022/03/22 01:51:21;;;;;;;29.48;12.48;;;;;;;-1.37;79.74;96797.66;5076103;28;20040;-76
2022/03/22 01:53:49;;;;;;;28.58;12.05;;;;;;;-1.42;79.32;96795.56;5089863;28;20105;-75
2022/03/22 01:56:15;;;;;;;29.00;12.70;;;;;;;-1.55;79.53;96796.06;5089950;28;20051;-75
2022/03/22 01:58:41;;;;;;;27.73;12.90;;;;;;;-1.41;79.92;96797.16;5098058;28;20409;-75
2022/03/22 02:06:37;;;;;;;34.53;12.57;;;;;;;-1.47;80.16;96797.81;5098632;28;20046;-75
2022/03/22 02:09:03;;;;;;;30.15;13.05;;;;;;;-1.58;80.46;96797.19;5073675;28;20108;-75
2022/03/22 02:11:29;;;;;;;34.25;13.93;;;;;;;-1.64;80.58;96787.50;5089910;28;20044;-75
2022/03/22 02:13:56;;;;;;;31.75;12.18;;;;;;;-1.68;81.06;96791.38;5089389;28;20044;-75
2022/03/22 02:16:22;;;;;;;32.28;13.50;;;;;;;-1.73;81.64;96793.59;5071333;28;20048;-75
2022/03/22 02:18:50;;;;;;;29.42;12.52;;;;;;;-1.59;81.03;96784.44;5089566;28;20425;-75
2022/03/22 02:21:18;;;;;;;27.65;12.73;;;;;;;-1.59;81.04;96780.06;5095230;28;20042;-75
2022/03/22 02:23:56;;;;;;;32.97;13.13;;;;;;;-1.65;81.13;96783.31;5086832;28;20039;-75
2022/03/22 02:26:23;;;;;;;29.83;13.00;;;;;;;-1.69;80.50;96778.63;5102282;28;20063;-75
2022/03/22 02:28:53;;;;;;;33.95;13.30;;;;;;;-1.67;80.61;96772.31;5087736;28;20472;-75
2022/03/22 02:31:28;;;;;;;31.13;12.63;;;;;;;-1.70;80.51;96764.91;5089478;28;20047;-76
2022/03/22 02:33:55;;;;;;;33.63;13.43;;;;;;;-1.78;80.79;96764.88;5090232;28;20062;-75
2022/03/22 02:36:21;;;;;;;37.75;12.90;;;;;;;-1.71;80.67;96771.03;5095805;28;20042;-75
2022/03/22 02:38:47;;;;;;;28.60;12.32;;;;;;;-1.89;81.67;96772.97;5084252;28;20476;-76
2022/03/22 02:41:18;;;;;;;33.17;14.45;;;;;;;-2.35;85.24;96776.72;5101356;28;20717;-75
2022/03/22 02:43:45;;;;;;;33.72;13.68;;;;;;;-2.19;84.30;96768.22;5078841;28;20158;-75
2022/03/22 02:46:11;;;;;;;32.28;13.75;;;;;;;-2.24;83.93;96774.81;5106226;28;20044;-75
2022/03/22 02:48:37;;;;;;;34.40;13.25;;;;;;;-1.95;82.67;96770.03;5094922;28;20046;-75
2022/03/22 02:51:03;;;;;;;36.72;13.68;;;;;;;-1.87;81.61;96771.00;5072449;28;20409;-75
2022/03/22 02:53:29;;;;;;;32.28;12.80;;;;;;;-1.87;81.92;96776.19;5093519;28;20040;-75
2022/03/22 02:55:54;;;;;;;31.77;12.82;;;;;;;-2.02;82.28;96789.69;5082004;28;20100;-75
2022/03/22 02:58:20;;;;;;;32.92;13.48;;;;;;;-2.05;82.04;96779.69;5107321;28;20039;-75
2022/03/22 03:00:45;;;;;;;36.42;13.73;;;;;;;-2.03;82.06;96787.28;5082059;28;20569;-75
2022/03/22 03:03:11;;;;;;;29.95;13.02;;;;;;;-2.12;83.23;96773.56;5088860;28;20034;-75
2022/03/22 03:05:37;;;;;;;32.03;13.77;;;;;;;-2.03;82.92;96771.81;5089957;28;20040;-76
2022/03/22 03:08:03;;;;;;;34.35;13.57;;;;;;;-2.11;83.11;96785.50;5103233;28;20071;-77
2022/03/22 03:10:29;;;;;;;35.38;14.15;;;;;;;-2.13;82.68;96782.25;5074266;28;20135;-75
2022/03/22 03:13:02;;;;;;;34.08;14.32;;;;;;;-2.15;82.57;96779.03;5088388;28;20044;-75
2022/03/22 03:15:28;;;;;;;32.50;13.17;;;;;;;-2.19;83.38;96788.03;5096871;28;20516;-75
2022/03/22 03:17:54;;;;;;;34.50;13.30;;;;;;;-2.08;82.69;96785.19;5095327;28;20304;-75
2022/03/22 03:20:19;;;;;;;30.83;13.38;;;;;;;-2.11;81.93;96785.50;5109369;28;20434;-75
2022/03/22 03:22:45;;;;;;;32.10;13.25;;;;;;;-2.16;82.13;96787.72;5108286;28;20104;-76
2022/03/22 03:25:11;;;;;;;36.83;14.10;;;;;;;-2.16;82.89;96792.88;5092240;28;20409;-76
2022/03/22 03:27:36;;;;;;;37.00;14.02;;;;;;;-2.20;82.33;96807.84;5090193;28;20042;-75
2022/03/22 03:30:06;;;;;;;31.27;13.82;;;;;;;-2.18;82.25;96805.16;5112785;27;20043;-76
2022/03/22 03:32:32;;;;;;;32.28;13.88;;;;;;;-2.16;82.97;96808.38;5107577;28;20040;-75
2022/03/22 03:34:58;;;;;;;36.08;13.65;;;;;;;-2.27;82.67;96807.69;5109298;28;20032;-75
2022/03/22 03:37:24;;;;;;;30.35;13.95;;;;;;;-2.31;83.10;96811.53;5099522;28;20069;-75
2022/03/22 03:39:53;;;;;;;38.33;14.82;;;;;;;-2.25;83.27;96814.47;5101745;28;20096;-75
2022/03/22 03:42:18;;;;;;;32.40;13.98;;;;;;;-2.24;83.26;96816.06;5113019;28;20123;-75
2022/03/22 03:47:28;;;;;;;32.60;13.25;;;;;;;-2.22;83.06;96816.72;5106069;28;20489;-75
2022/03/22 03:49:55;;;;;;;37.03;14.10;;;;;;;-2.20;82.49;96807.06;5109134;28;20039;-76
2022/03/22 03:52:26;;;;;;;37.97;13.95;;;;;;;-2.25;82.74;96809.31;5084391;28;20039;-75
2022/03/22 03:54:52;;;;;;;35.70;14.63;;;;;;;-2.22;82.62;96814.16;5110943;28;20032;-75
2022/03/22 03:57:18;;;;;;;30.60;13.25;;;;;;;-2.27;82.54;96812.03;5105600;28;20032;-75
2022/03/22 03:59:44;;;;;;;42.80;15.70;;;;;;;-2.32;82.30;96809.91;5092408;28;20048;-75
2022/03/22 04:02:10;;;;;;;39.38;14.18;;;;;;;-2.39;82.29;96808.94;5092088;28;20078;-75
2022/03/22 04:04:38;;;;;;;37.45;14.27;;;;;;;-2.44;82.63;96811.19;5073637;28;20082;-75
2022/03/22 04:07:05;;;;;;;32.30;13.60;;;;;;;-2.47;83.15;96803.72;5101178;28;20084;-75
2022/03/22 04:09:31;;;;;;;36.55;13.80;;;;;;;-2.47;83.16;96811.47;5111996;28;20089;-74
2022/03/22 04:11:57;;;;;;;40.72;14.95;;;;;;;-2.61;83.34;96813.66;5105561;28;20047;-75
2022/03/22 04:14:23;;;;;;;37.47;15.20;;;;;;;-2.45;82.41;96804.41;5108595;28;20111;-75
2022/03/22 04:16:52;;;;;;;39.75;14.98;;;;;;;-2.52;82.81;96806.78;5092086;28;20051;-75
2022/03/22 04:19:17;;;;;;;39.58;15.25;;;;;;;-2.55;83.29;96809.66;5091806;28;20040;-75
2022/03/22 04:21:44;;;;;;;36.42;14.32;;;;;;;-2.55;83.37;96808.88;5092192;28;20040;-75
2022/03/22 04:24:11;;;;;;;34.58;14.05;;;;;;;-2.65;82.89;96809.78;5111101;28;20040;-75
2022/03/22 04:26:40;;;;;;;35.75;14.77;;;;;;;-2.61;83.01;96816.25;5108947;28;20039;-74
2022/03/22 04:34:37;;;;;;;37.33;15.05;;;;;;;-2.75;83.43;96811.66;5091510;28;20105;-75
2022/03/22 04:37:03;;;;;;;43.50;15.35;;;;;;;-2.75;84.04;96811.66;5092238;28;20044;-75
2022/03/22 04:39:30;;;;;;;54.15;16.17;;;;;;;-2.67;84.03;96809.13;5111110;28;20048;-74
2022/03/22 04:41:57;;;;;;;42.40;15.88;;;;;;;-2.64;84.15;96808.81;5091446;28;20078;-74
2022/03/22 04:44:28;;;;;;;45.72;16.00;;;;;;;-2.71;84.06;96809.59;5091086;28;20039;-75
2022/03/22 04:46:56;;;;;;;43.85;15.15;;;;;;;-2.79;84.14;96807.78;5108980;28;20051;-75
2022/03/22 04:49:22;;;;;;;51.35;15.82;;;;;;;-2.85;84.05;96804.03;5077860;28;20075;-75
2022/03/22 04:57:16;;;;;;;42.63;15.60;;;;;;;-2.90;83.14;96815.75;5091497;28;20055;-74
2022/03/22 04:59:45;;;;;;;49.72;16.02;;;;;;;-2.95;83.82;96829.09;5093480;28;20036;-74
2022/03/22 05:02:12;;;;;;;43.15;15.65;;;;;;;-2.96;83.56;96828.31;5110769;28;20047;-74
2022/03/22 05:04:38;;;;;;;45.50;16.02;;;;;;;-2.97;83.25;96826.69;5081909;28;20127;-74
2022/03/22 05:07:04;;;;;;;41.63;15.48;;;;;;;-3.06;83.95;96827.59;5103332;28;20122;-74
2022/03/22 05:09:30;;;;;;;45.03;15.57;;;;;;;-3.14;84.09;96835.25;5093783;28;20441;-74
2022/03/22 05:12:00;;;;;;;37.00;15.43;;;;;;;-3.14;85.01;96830.09;5102492;28;20048;-74
2022/03/22 05:14:26;;;;;;;50.10;16.35;;;;;;;-3.31;86.69;96835.13;5108529;28;20043;-74
2022/03/22 05:16:56;;;;;;;47.55;17.42;;;;;;;-3.00;84.68;96832.13;5111440;28;20066;-74
2022/03/22 05:19:21;;;;;;;39.90;15.18;;;;;;;-3.20;84.84;96841.03;5091602;28;20048;-74
2022/03/22 05:21:47;;;;;;;45.22;15.65;;;;;;;-3.22;84.31;96836.03;5099371;28;20142;-74
2022/03/22 05:24:12;;;;;;;42.75;16.05;;;;;;;-3.21;85.34;96829.09;5093903;28;20039;-74
2022/03/22 05:26:38;;;;;;;39.13;14.98;;;;;;;-3.20;85.33;96839.25;5091245;28;20048;-73
2022/03/22 05:29:04;;;;;;;39.67;14.95;;;;;;;-3.24;84.93;96839.69;5107696;28;20044;-74
2022/03/22 05:31:34;;;;;;;41.75;15.18;;;;;;;-3.20;85.63;96843.59;5107482;28;20036;-74
2022/03/22 05:34:00;;;;;;;41.05;16.30;;;;;;;-3.17;85.66;96843.28;5109889;28;20115;-74
2022/03/22 05:36:27;;;;;;;42.83;15.30;;;;;;;-3.13;85.41;96847.19;5103989;28;20044;-74
2022/03/22 05:38:53;;;;;;;40.30;15.60;;;;;;;-3.11;84.98;96845.25;5105329;28;20048;-74
2022/03/22 05:41:19;;;;;;;40.05;15.65;;;;;;;-3.02;85.06;96849.50;5110424;28;20043;-74
2022/03/22 05:43:45;;;;;;;45.05;16.70;;;;;;;-2.97;83.99;96852.44;5095853;28;20040;-74
2022/03/22 05:46:11;;;;;;;40.85;16.05;;;;;;;-3.02;84.03;96852.06;5090251;28;20494;-75
2022/03/22 05:48:38;;;;;;;44.85;15.80;;;;;;;-3.02;84.84;96854.66;5075088;28;20076;-75
2022/03/22 05:51:04;;;;;;;44.58;16.70;;;;;;;-2.97;85.32;96841.34;5090365;28;20089;-74
2022/03/22 05:53:31;;;;;;;45.15;17.02;;;;;;;-2.90;84.73;96847.50;5100332;28;20443;-74
2022/03/22 05:55:56;;;;;;;43.38;15.98;;;;;;;-2.83;84.58;96852.84;5078573;28;20486;-73
2022/03/22 05:58:22;;;;;;;42.95;16.08;;;;;;;-2.84;84.36;96848.66;5102030;28;20097;-74
2022/03/22 06:00:48;;;;;;;43.10;15.57;;;;;;;-2.85;84.61;96854.78;5089406;28;20063;-74
2022/03/22 06:03:15;;;;;;;42.40;16.48;;;;;;;-2.84;84.69;96861.53;5093068;28;20046;-73
2022/03/22 06:05:42;;;;;;;46.58;16.10;;;;;;;-2.87;84.83;96851.53;5103164;28;20061;-73
2022/03/22 06:08:08;;;;;;;45.88;16.90;;;;;;;-2.71;85.42;96846.47;5094626;28;20050;-73
2022/03/22 06:10:34;;;;;;;49.90;17.65;;;;;;;-2.51;85.24;96846.28;5105463;28;20044;-74
2022/03/22 06:13:00;;;;;;;45.80;17.42;;;;;;;-2.31;84.61;96857.97;5098229;28;20042;-73
2022/03/22 06:15:28;;;;;;;51.67;16.63;;;;;;;-2.20;84.14;96853.47;5104017;28;20043;-73
2022/03/22 06:18:01;;;;;;;46.42;16.30;;;;;;;-2.03;84.42;96850.00;5107939;28;20054;-73
2022/03/22 06:20:29;;;;;;;43.45;16.27;;;;;;;-1.86;84.26;96855.22;5109211;28;20496;-73
2022/03/22 06:22:55;;;;;;;43.65;16.50;;;;;;;-1.83;84.13;96845.38;5087982;28;20039;-72
2022/03/22 06:25:21;;;;;;;44.60;17.25;;;;;;;-1.71;83.79;96847.66;5105605;28;20050;-72
2022/03/22 06:27:49;;;;;;;50.13;17.58;;;;;;;-1.71;83.96;96848.47;5106723;28;20043;-73
2022/03/22 06:30:16;;;;;;;48.40;18.00;;;;;;;-1.59;83.57;96844.59;5082263;28;20071;-74
2022/03/22 06:32:47;;;;;;;49.08;17.17;;;;;;;-1.44;83.05;96854.31;5107172;28;20043;-73
2022/03/22 06:35:18;;;;;;;45.10;17.35;;;;;;;-1.61;83.25;96854.28;5092814;28;20237;-73
2022/03/22 06:37:45;;;;;;;42.72;16.80;;;;;;;-1.53;83.64;96850.09;5080371;28;20043;-73
2022/03/22 06:40:11;;;;;;;45.20;17.52;;;;;;;-1.57;84.50;96855.59;5094639;28;20039;-74
2022/03/22 06:42:37;;;;;;;41.58;16.52;;;;;;;-1.57;84.37;96855.59;5102776;28;20119;-70
2022/03/22 06:45:05;;;;;;;39.55;15.32;;;;;;;-1.44;84.09;96854.31;5102842;28;20110;-71
2022/03/22 06:47:32;;;;;;;48.72;17.02;;;;;;;-1.05;83.55;96864.00;5089529;28;20055;-71
2022/03/22 06:49:58;;;;;;;42.63;16.52;;;;;;;-1.11;82.80;96860.28;5089270;28;20046;-70
2022/03/22 06:52:24;;;;;;;55.35;17.50;;;;;;;-1.27;84.07;96863.66;5088715;28;20044;-71
2022/03/22 06:54:49;;;;;;;69.93;19.13;;;;;;;-1.34;84.62;96860.13;5088864;28;20501;-71
2022/03/22 06:57:15;;;;;;;52.80;17.85;;;;;;;-1.28;84.57;96867.25;5087221;28;20124;-70
2022/03/22 06:59:42;;;;;;;45.85;16.92;;;;;;;-1.25;84.75;96874.66;5102776;28;20096;-70
2022/03/22 07:02:08;;;;;;;46.45;16.63;;;;;;;-1.20;84.84;96868.22;5090521;28;20452;-74
2022/03/22 07:04:34;;;;;;;54.47;16.95;;;;;;;-1.15;85.46;96868.50;5070987;28;20047;-72
2022/03/22 07:07:00;;;;;;;47.45;17.38;;;;;;;-1.08;85.40;96869.47;5106767;28;20040;-71
2022/03/22 07:09:26;;;;;;;43.47;17.13;;;;;;;-1.03;85.24;96871.56;5106553;28;20670;-71
2022/03/22 07:11:52;;;;;;;50.25;16.85;;;;;;;-0.91;84.70;96876.25;5089276;28;20058;-72
2022/03/22 07:14:23;;;;;;;46.40;16.73;;;;;;;-0.82;84.77;96869.31;5092597;28;20044;-71
2022/03/22 07:16:50;;;;;;;42.45;15.90;;;;;;;-0.78;84.99;96869.78;5089334;28;20129;-74
2022/03/22 07:19:18;;;;;;;41.03;14.80;;;;;;;-0.58;83.37;96883.97;5088997;28;20048;-72
2022/03/22 07:21:44;;;;;;;38.15;14.63;;;;;;;-0.53;83.78;96883.50;5107701;28;20043;-72
2022/03/22 07:24:11;;;;;;;38.72;15.55;;;;;;;-0.46;83.81;96883.63;5096039;28;20039;-73
2022/03/22 07:26:37;;;;;;;35.72;14.02;;;;;;;-0.41;84.08;96883.94;5108406;28;20043;-72
2022/03/22 07:29:04;;;;;;;37.88;14.77;;;;;;;-0.32;83.49;96885.53;5102780;28;20044;-75
2022/03/22 07:31:30;;;;;;;41.47;16.30;;;;;;;0.14;81.34;96875.34;5094430;28;20043;-73
2022/03/22 07:33:56;;;;;;;37.40;14.82;;;;;;;0.42;80.36;96880.03;5096625;28;20486;-72
2022/03/22 07:36:23;;;;;;;36.05;14.23;;;;;;;0.55;80.38;96883.81;5091902;28;20050;-72
2022/03/22 07:38:49;;;;;;;38.53;14.45;;;;;;;1.08;77.38;96882.16;5088554;28;20433;-72
2022/03/22 07:41:14;;;;;;;39.60;14.65;;;;;;;1.16;77.40;96889.84;5088519;28;20044;-73
2022/03/22 07:43:41;;;;;;;35.25;14.45;;;;;;;0.96;78.78;96888.72;5096223;28;20093;-73
2022/03/22 07:46:07;;;;;;;38.00;15.55;;;;;;;0.86;79.31;96883.78;5100203;28;20401;-73
2022/03/22 07:48:33;;;;;;;37.35;13.93;;;;;;;0.85;79.04;96888.16;5089349;28;20040;-77
2022/03/22 07:53:44;;;;;;;39.00;16.15;;;;;;;0.81;79.84;96886.88;5090823;28;20055;-72
2022/03/22 07:56:10;;;;;;;35.38;15.60;;;;;;;1.03;79.25;96885.28;5092795;28;20331;-73
2022/03/22 07:58:36;;;;;;;43.33;15.50;;;;;;;1.04;78.52;96880.88;5097209;28;20532;-73
2022/03/22 08:01:02;;;;;;;39.63;15.10;;;;;;;1.15;79.72;96888.25;5102025;28;20048;-72
2022/03/22 08:03:27;;;;;;;42.15;15.45;;;;;;;1.17;79.49;96890.66;5104303;28;20040;-73
2022/03/22 08:05:53;;;;;;;33.20;13.85;;;;;;;1.62;75.44;96888.13;5110666;28;20097;-73
2022/03/22 08:08:19;;;;;;;39.50;14.15;;;;;;;2.15;73.95;96894.00;5112764;28;20039;-73
2022/03/22 08:10:46;;;;;;;36.58;14.73;;;;;;;2.23;73.73;96878.31;5112753;27;20054;-73
2022/03/22 08:13:12;;;;;;;37.08;14.75;;;;;;;2.30;73.84;96885.38;5111065;28;20096;-73
2022/03/22 08:15:38;;;;;;;32.40;14.35;;;;;;;2.25;73.99;96884.13;5111383;28;20059;-73
2022/03/22 08:18:05;;;;;;;37.13;14.13;;;;;;;2.37;73.91;96878.47;5094973;28;20040;-74
2022/03/22 08:20:32;;;;;;;38.67;15.80;;;;;;;2.43;72.68;96885.53;5112691;28;20135;-73
2022/03/22 08:22:59;;;;;;;39.03;14.50;;;;;;;2.51;73.08;96882.00;5084924;28;20039;-73
2022/03/22 08:25:36;;;;;;;41.95;14.90;;;;;;;2.62;72.48;96883.34;5112055;27;20047;-72
2022/03/22 08:28:07;;;;;;;36.97;14.55;;;;;;;2.68;71.96;96878.19;5112420;28;20059;-72
2022/03/22 08:30:33;;;;;;;35.78;14.73;;;;;;;3.00;69.62;96876.06;5115479;27;20492;-74
2022/03/22 08:33:00;;;;;;;41.47;14.48;;;;;;;3.57;66.54;96882.09;5114035;27;20118;-73
2022/03/22 08:35:27;;;;;;;37.28;15.50;;;;;;;3.86;67.04;96877.66;5107910;27;20044;-74
2022/03/22 08:37:54;;;;;;;32.22;14.45;;;;;;;4.44;63.77;96869.47;5091696;28;20079;-74
2022/03/22 08:40:20;;;;;;;41.85;16.40;;;;;;;4.81;61.56;96876.94;5091650;28;20059;-72
2022/03/22 08:42:48;;;;;;;39.58;15.20;;;;;;;4.75;63.07;96873.34;5106133;28;20043;-72
2022/03/22 08:45:20;;;;;;;39.72;15.38;;;;;;;4.63;62.21;96875.72;5109529;28;20044;-73
2022/03/22 08:47:48;;;;;;;37.35;14.50;;;;;;;4.53;64.14;96870.09;5115082;27;20043;-72
2022/03/22 08:50:15;;;;;;;37.83;15.63;;;;;;;4.44;64.44;96872.09;5098541;28;20044;-74
2022/03/22 08:52:42;;;;;;;39.33;14.95;;;;;;;4.45;65.13;96878.09;5106476;28;20111;-72
2022/03/22 08:55:11;;;;;;;37.30;15.85;;;;;;;4.82;62.46;96868.13;5102575;27;20042;-72
2022/03/22 08:57:37;;;;;;;41.72;16.52;;;;;;;5.02;60.83;96868.94;5082014;27;20039;-73
2022/03/22 09:00:09;;;;;;;39.72;15.02;;;;;;;5.28;61.13;96866.56;5107517;27;20052;-72
2022/03/22 09:02:35;;;;;;;40.17;16.13;;;;;;;5.18;61.30;96866.94;5093323;28;20119;-73
2022/03/22 09:07:47;;;;;;;40.35;15.73;;;;;;;5.59;58.31;96865.91;5092845;28;20043;-74
2022/03/22 09:10:14;;;;;;;35.30;15.85;;;;;;;5.65;57.82;96867.69;5108266;27;20070;-74
2022/03/22 09:12:41;;;;;;;33.22;14.30;;;;;;;5.79;57.13;96857.22;5100382;28;20147;-74
2022/03/22 09:15:07;;;;;;;36.63;16.10;;;;;;;6.01;56.54;96855.97;5108598;27;20031;-74
2022/03/22 09:17:33;;;;;;;52.05;16.17;;;;;;;6.19;56.17;96857.09;5109089;27;20078;-73
2022/03/22 09:19:58;;;;;;;37.10;16.48;;;;;;;6.35;54.79;96851.41;5091905;28;20633;-75
2022/03/22 09:22:24;;;;;;;35.38;14.95;;;;;;;6.43;53.46;96852.19;5100690;28;20054;-73
2022/03/22 09:24:50;;;;;;;39.50;15.65;;;;;;;6.56;53.83;96852.09;5106550;28;20046;-75
2022/03/22 09:27:15;;;;;;;33.58;15.13;;;;;;;6.39;55.76;96852.59;5099868;28;20386;-76
2022/03/22 09:29:41;;;;;;;45.50;15.73;;;;;;;6.61;53.71;96854.91;5088907;28;20044;-74
2022/03/22 09:32:06;;;;;;;39.65;15.63;;;;;;;7.22;52.54;96852.63;5103505;28;20046;-74
2022/03/22 09:34:32;;;;;;;38.65;15.80;;;;;;;7.64;51.70;96844.97;5089880;28;20051;-73
2022/03/22 09:37:00;;;;;;;34.08;15.27;;;;;;;7.59;50.67;96855.34;5090081;28;20036;-74
2022/03/22 09:39:25;;;;;;;35.78;15.20;;;;;;;7.58;49.53;96840.63;5095543;28;20093;-74
2022/03/22 09:41:51;;;;;;;38.50;15.35;;;;;;;7.58;50.69;96843.25;5106007;28;20031;-74
2022/03/22 09:44:19;;;;;;;40.83;16.98;;;;;;;7.75;49.11;96839.03;5099235;28;20035;-73
2022/03/22 09:46:50;;;;;;;38.95;15.98;;;;;;;7.89;48.51;96836.28;5092772;28;20036;-77
2022/03/22 09:49:16;;;;;;;38.10;15.38;;;;;;;8.05;47.62;96838.28;5103086;27;20039;-74
2022/03/22 09:51:47;;;;;;;33.13;15.25;;;;;;;8.31;46.82;96828.50;5084368;28;20185;-74
2022/03/22 09:54:14;;;;;;;37.00;16.33;;;;;;;8.40;46.79;96829.78;5102246;27;20629;-74
2022/03/22 09:56:42;;;;;;;35.55;16.08;;;;;;;8.50;46.72;96824.03;5101492;27;20058;-74
2022/03/22 09:59:08;;;;;;;36.85;15.45;;;;;;;8.56;46.80;96827.56;5094430;28;20089;-74
2022/03/22 10:01:35;;;;;;;39.67;16.38;;;;;;;8.71;45.85;96830.59;5100268;28;20043;-72
2022/03/22 10:04:07;;;;;;;37.50;16.90;;;;;;;8.94;45.61;96824.59;5068575;28;20063;-71
2022/03/22 10:06:33;;;;;;;45.35;15.93;;;;;;;9.38;42.97;96829.53;5105792;28;20047;-72
2022/03/22 10:09:01;;;;;;;37.17;15.23;;;;;;;9.60;42.95;96826.34;5111928;28;20047;-70
2022/03/22 10:11:38;;;;;;;38.53;16.33;;;;;;;9.89;42.39;96830.59;5096216;28;20047;-71
2022/03/22 10:14:08;;;;;;;44.80;16.83;;;;;;;10.37;42.45;96814.72;5102558;27;20066;-71
2022/03/22 10:16:45;;;;;;;51.22;19.00;;;;;;;10.48;41.35;96820.97;5108967;27;20047;-71
2022/03/22 10:19:21;;;;;;;39.92;18.10;;;;;;;11.03;40.05;96822.94;5106570;28;20048;-71
2022/03/22 10:21:47;;;;;;;48.65;16.95;;;;;;;12.77;37.50;96817.41;5103677;28;20040;-70
2022/03/22 10:24:17;;;;;;;39.58;17.30;;;;;;;13.59;34.68;96817.22;5106241;27;20433;-70
2022/03/22 10:26:46;;;;;;;37.78;17.17;;;;;;;14.46;33.97;96808.84;5103950;28;20048;-69
2022/03/22 10:29:14;;;;;;;38.50;17.98;;;;;;;14.61;32.44;96816.81;5108401;27;20513;-69
2022/03/22 10:31:41;;;;;;;47.03;18.65;;;;;;;14.97;32.28;96808.91;5091721;28;20141;-69
2022/03/22 10:34:10;;;;;;;48.10;19.02;;;;;;;14.86;32.07;96802.03;5074191;28;20089;-69
2022/03/22 10:36:37;;;;;;;43.75;19.65;;;;;;;15.46;30.90;96804.88;5103486;28;20572;-70
2022/03/22 10:39:10;;;;;;;38.92;19.13;;;;;;;15.79;30.41;96807.19;5063743;28;20069;-70
2022/03/22 10:41:45;;;;;;;49.83;19.70;;;;;;;16.63;29.34;96804.66;5093300;28;20115;-71
2022/03/22 10:44:14;;;;;;;54.03;20.77;;;;;;;15.75;29.97;96806.94;5088380;28;20063;-71
2022/03/22 10:46:42;;;;;;;48.05;21.70;;;;;;;16.86;29.14;96802.38;5105992;28;20051;-71
2022/03/22 10:49:10;;;;;;;53.75;21.02;;;;;;;17.08;28.80;96793.97;5091337;28;20488;-71
2022/03/22 10:51:56;;;;;;;44.50;18.85;;;;;;;17.05;28.38;96799.88;5086416;28;20088;-72
2022/03/22 10:54:22;;;;;;;59.67;19.05;;;;;;;17.29;27.85;96799.91;5090790;28;20057;-72
2022/03/22 10:56:49;;;;;;;33.72;16.40;;;;;;;16.06;29.19;96801.53;5079789;28;20051;-70
2022/03/22 10:59:17;;;;;;;31.88;16.08;;;;;;;16.83;28.25;96797.63;5102762;28;20040;-71
2022/03/22 11:01:44;;;;;;;26.42;14.85;;;;;;;17.67;26.82;96794.75;5089977;28;20047;-71
2022/03/22 11:04:12;;;;;;;25.55;13.95;;;;;;;18.07;26.78;96794.56;5079686;28;20059;-74
2022/03/22 11:06:38;;;;;;;29.17;13.63;;;;;;;18.15;26.38;96792.06;5098151;28;20036;-72
2022/03/22 11:09:05;;;;;;;22.13;13.20;;;;;;;17.32;24.95;96791.38;5094150;28;20445;-71
2022/03/22 11:11:31;;;;;;;25.30;12.68;;;;;;;18.24;25.56;96791.41;5102143;28;20047;-71
2022/03/22 11:13:58;;;;;;;18.70;11.57;;;;;;;18.10;24.90;96781.47;5089021;28;20066;-71
2022/03/22 11:16:27;;;;;;;18.25;11.48;;;;;;;17.70;25.10;96788.84;5096829;28;20043;-71
2022/03/22 11:18:55;;;;;;;19.58;11.50;;;;;;;17.24;26.59;96776.81;5094868;28;20053;-71
2022/03/22 11:21:20;;;;;;;17.27;11.35;;;;;;;17.13;26.17;96773.44;5094274;28;20044;-71
2022/03/22 11:23:47;;;;;;;17.83;10.32;;;;;;;18.10;25.78;96775.34;5098661;28;20056;-71
2022/03/22 11:26:19;;;;;;;18.08;11.02;;;;;;;17.93;25.20;96775.81;5095886;28;20093;-71
2022/03/22 11:28:46;;;;;;;20.80;10.40;;;;;;;18.51;24.84;96775.56;5102213;28;20060;-71
2022/03/22 11:31:14;;;;;;;20.17;10.25;;;;;;;18.79;23.81;96770.38;5092159;28;20036;-72
2022/03/22 11:36:27;;;;;;;16.55;9.80;;;;;;;19.41;22.77;96764.00;5091185;28;20044;-71
2022/03/22 11:38:57;;;;;;;20.70;9.63;;;;;;;18.78;23.45;96762.66;5092397;28;20074;-72
2022/03/22 11:44:35;;;;;;;15.85;10.05;;;;;;;18.43;24.18;96762.91;5095983;28;20040;-72
2022/03/22 11:47:14;;;;;;;19.63;9.80;;;;;;;19.35;23.04;96759.81;5100994;28;20603;-72
2022/03/22 11:49:59;;;;;;;14.07;9.75;;;;;;;19.28;23.03;96756.75;5115944;28;20044;-72